sensor_id;sensor_type;location;lat;lon;timestamp;pressure;altitude;pressure_sealevel;temperature;humidity
58373;BME280;44177;43.356;27.672;2022-10-31T00:00:17;98373.53;;;18.04;48.68
58373;BME280;44177;43.356;27.672;2022-10-31T00:02:43;98374.72;;;18.03;48.76
58373;BME280;44177;43.356;27.672;2022-10-31T00:05:08;98373.16;;;18.02;48.56
58373;BME280;44177;43.356;27.672;2022-10-31T00:07:34;98370.75;;;18.00;48.60
58373;BME280;44177;43.356;27.672;2022-10-31T00:09:59;98383.78;;;18.03;48.73
58373;BME280;44177;43.356;27.672;2022-10-31T00:12:26;98366.06;;;18.01;48.50
58373;BME280;44177;43.356;27.672;2022-10-31T00:14:51;98371.97;;;18.03;48.73
58373;BME280;44177;43.356;27.672;2022-10-31T00:17:16;98376.69;;;18.02;48.64
58373;BME280;44177;43.356;27.672;2022-10-31T00:19:42;98372.75;;;18.03;48.77
58373;BME280;44177;43.356;27.672;2022-10-31T00:22:07;98375.50;;;18.03;48.72
58373;BME280;44177;43.356;27.672;2022-10-31T00:24:33;98367.22;;;18.03;48.60
58373;BME280;44177;43.356;27.672;2022-10-31T00:26:58;98363.69;;;18.03;48.69
58373;BME280;44177;43.356;27.672;2022-10-31T00:29:24;98373.94;;;18.02;48.46
58373;BME280;44177;43.356;27.672;2022-10-31T00:31:49;98373.94;;;18.02;48.71
58373;BME280;44177;43.356;27.672;2022-10-31T00:34:14;98373.16;;;18.02;48.46
58373;BME280;44177;43.356;27.672;2022-10-31T00:36:40;98367.63;;;18.02;48.44
58373;BME280;44177;43.356;27.672;2022-10-31T00:39:05;98364.88;;;18.02;48.88
58373;BME280;44177;43.356;27.672;2022-10-31T00:41:31;98362.09;;;18.02;48.84
58373;BME280;44177;43.356;27.672;2022-10-31T00:43:56;98366.06;;;18.01;48.51
58373;BME280;44177;43.356;27.672;2022-10-31T00:46:22;98367.63;;;18.02;48.40
58373;BME280;44177;43.356;27.672;2022-10-31T00:48:48;98366.81;;;18.01;48.79
58373;BME280;44177;43.356;27.672;2022-10-31T00:51:13;98371.56;;;18.01;48.88
58373;BME280;44177;43.356;27.672;2022-10-31T00:53:39;98374.31;;;18.01;48.93
58373;BME280;44177;43.356;27.672;2022-10-31T00:56:05;98366.44;;;17.99;48.42
58373;BME280;44177;43.356;27.672;2022-10-31T00:58:30;98373.16;;;18.02;48.86
58373;BME280;44177;43.356;27.672;2022-10-31T01:00:56;98366.81;;;18.01;48.67
58373;BME280;44177;43.356;27.672;2022-10-31T01:03:23;98365.25;;;18.00;48.81
58373;BME280;44177;43.356;27.672;2022-10-31T01:08:22;98368.81;;;18.01;48.66
58373;BME280;44177;43.356;27.672;2022-10-31T01:10:58;98371.56;;;18.01;48.61
58373;BME280;44177;43.356;27.672;2022-10-31T01:13:23;98374.31;;;18.01;48.63
58373;BME280;44177;43.356;27.672;2022-10-31T01:15:54;98372.34;;;18.01;48.90
58373;BME280;44177;43.356;27.672;2022-10-31T01:18:20;98377.09;;;18.01;48.75
58373;BME280;44177;43.356;27.672;2022-10-31T01:20:45;98371.56;;;18.01;48.78
58373;BME280;44177;43.356;27.672;2022-10-31T01:23:10;98370.75;;;18.00;48.81
58373;BME280;44177;43.356;27.672;2022-10-31T01:25:36;98371.56;;;18.01;48.84
58373;BME280;44177;43.356;27.672;2022-10-31T01:28:02;98376.28;;;18.00;48.64
58373;BME280;44177;43.356;27.672;2022-10-31T01:30:27;98377.09;;;18.01;48.91
58373;BME280;44177;43.356;27.672;2022-10-31T01:32:52;98370.75;;;18.00;48.74
58373;BME280;44177;43.356;27.672;2022-10-31T01:35:18;98367.63;;;18.02;48.46
58373;BME280;44177;43.356;27.672;2022-10-31T01:37:43;98371.56;;;18.01;48.74
58373;BME280;44177;43.356;27.672;2022-10-31T01:40:09;98370.75;;;18.00;48.64
58373;BME280;44177;43.356;27.672;2022-10-31T01:42:35;98368.81;;;18.01;48.82
58373;BME280;44177;43.356;27.672;2022-10-31T01:45:01;98371.56;;;18.01;48.80
58373;BME280;44177;43.356;27.672;2022-10-31T01:47:41;98373.53;;;18.00;48.87
58373;BME280;44177;43.356;27.672;2022-10-31T01:50:28;98377.09;;;18.01;48.58
58373;BME280;44177;43.356;27.672;2022-10-31T01:52:56;98381.81;;;18.00;48.66
58373;BME280;44177;43.356;27.672;2022-10-31T01:55:28;98376.28;;;18.00;48.93
58373;BME280;44177;43.356;27.672;2022-10-31T01:57:58;98368.81;;;18.01;48.67
58373;BME280;44177;43.356;27.672;2022-10-31T02:00:26;98364.47;;;17.99;48.79
58373;BME280;44177;43.356;27.672;2022-10-31T02:02:51;98354.59;;;17.98;48.74
58373;BME280;44177;43.356;27.672;2022-10-31T02:05:19;98368.41;;;17.98;48.81
58373;BME280;44177;43.356;27.672;2022-10-31T02:07:54;98360.13;;;17.98;48.90
58373;BME280;44177;43.356;27.672;2022-10-31T02:10:22;98361.31;;;17.97;48.72
58373;BME280;44177;43.356;27.672;2022-10-31T02:12:50;98362.88;;;17.98;48.74
58373;BME280;44177;43.356;27.672;2022-10-31T02:15:17;98360.13;;;17.98;48.67
58373;BME280;44177;43.356;27.672;2022-10-31T02:17:42;98369.97;;;17.99;48.68
58373;BME280;44177;43.356;27.672;2022-10-31T02:20:19;98356.16;;;17.92;48.72
58373;BME280;44177;43.356;27.672;2022-10-31T02:33:48;98366.03;;;17.97;48.82
58373;BME280;44177;43.356;27.672;2022-10-31T02:38:47;98374.72;;;17.95;49.00
58373;BME280;44177;43.356;27.672;2022-10-31T02:41:48;98375.50;;;17.96;48.71
58373;BME280;44177;43.356;27.672;2022-10-31T02:44:28;98382.59;;;17.97;48.84
58373;BME280;44177;43.356;27.672;2022-10-31T02:47:18;98381.78;;;17.96;48.68
58373;BME280;44177;43.356;27.672;2022-10-31T02:53:00;98388.91;;;17.97;48.65
58373;BME280;44177;43.356;27.672;2022-10-31T02:57:57;98385.75;;;17.95;48.91
58373;BME280;44177;43.356;27.672;2022-10-31T03:00:24;98379.41;;;17.91;49.14
58373;BME280;44177;43.356;27.672;2022-10-31T03:03:02;98401.13;;;17.96;48.79
58373;BME280;44177;43.356;27.672;2022-10-31T03:05:55;98401.13;;;17.96;48.80
58373;BME280;44177;43.356;27.672;2022-10-31T03:08:31;98399.56;;;17.95;48.89
58373;BME280;44177;43.356;27.672;2022-10-31T03:11:02;98403.88;;;17.96;48.93
58373;BME280;44177;43.356;27.672;2022-10-31T03:16:40;98405.09;;;17.95;48.84
58373;BME280;44177;43.356;27.672;2022-10-31T03:19:23;98406.22;;;17.94;49.03
58373;BME280;44177;43.356;27.672;2022-10-31T03:22:16;98405.41;;;17.94;48.71
58373;BME280;44177;43.356;27.672;2022-10-31T03:24:43;98406.22;;;17.94;48.92
58373;BME280;44177;43.356;27.672;2022-10-31T03:27:12;98401.50;;;17.95;48.97
58373;BME280;44177;43.356;27.672;2022-10-31T03:29:40;98411.75;;;17.94;49.13
58373;BME280;44177;43.356;27.672;2022-10-31T03:32:17;98410.53;;;17.92;49.04
58373;BME280;44177;43.356;27.672;2022-10-31T03:34:43;98404.66;;;17.93;48.89
58373;BME280;44177;43.356;27.672;2022-10-31T03:37:14;98406.22;;;17.94;48.72
58373;BME280;44177;43.356;27.672;2022-10-31T03:39:43;98410.16;;;17.93;48.82
58373;BME280;44177;43.356;27.672;2022-10-31T03:42:31;98417.63;;;17.93;49.07
58373;BME280;44177;43.356;27.672;2022-10-31T03:45:06;98410.16;;;17.93;48.93
58373;BME280;44177;43.356;27.672;2022-10-31T03:47:34;98416.88;;;17.92;48.75
58373;BME280;44177;43.356;27.672;2022-10-31T03:50:02;98418.81;;;17.92;49.00
58373;BME280;44177;43.356;27.672;2022-10-31T03:52:49;98418.03;;;17.91;48.74
58373;BME280;44177;43.356;27.672;2022-10-31T03:55:31;98418.03;;;17.91;49.10
58373;BME280;44177;43.356;27.672;2022-10-31T03:58:05;98417.63;;;17.86;48.75
58373;BME280;44177;43.356;27.672;2022-10-31T04:00:34;98434.59;;;17.91;48.88
58373;BME280;44177;43.356;27.672;2022-10-31T04:03:07;98436.56;;;17.91;49.01
58373;BME280;44177;43.356;27.672;2022-10-31T04:05:35;98437.34;;;17.91;48.70
58373;BME280;44177;43.356;27.672;2022-10-31T04:08:05;98446.41;;;17.92;48.83
58373;BME280;44177;43.356;27.672;2022-10-31T04:10:32;98446.41;;;17.92;48.74
58373;BME280;44177;43.356;27.672;2022-10-31T04:13:06;98450.75;;;17.89;49.01
58373;BME280;44177;43.356;27.672;2022-10-31T04:15:33;98449.56;;;17.90;48.70
58373;BME280;44177;43.356;27.672;2022-10-31T04:18:01;98462.59;;;17.93;48.68
58373;BME280;44177;43.356;27.672;2022-10-31T04:20:33;98456.69;;;17.91;48.76
58373;BME280;44177;43.356;27.672;2022-10-31T04:23:00;98446.41;;;17.88;48.68
58373;BME280;44177;43.356;27.672;2022-10-31T04:25:25;98458.25;;;17.92;48.85
58373;BME280;44177;43.356;27.672;2022-10-31T04:27:51;98462.97;;;17.92;48.98
58373;BME280;44177;43.356;27.672;2022-10-31T04:30:16;98464.56;;;17.93;48.90
58373;BME280;44177;43.356;27.672;2022-10-31T04:32:42;98466.53;;;17.92;48.96
58373;BME280;44177;43.356;27.672;2022-10-31T04:35:07;98463.38;;;17.90;48.71
58373;BME280;44177;43.356;27.672;2022-10-31T04:37:33;98467.72;;;17.91;48.79
58373;BME280;44177;43.356;27.672;2022-10-31T04:39:58;98467.72;;;17.91;48.70
58373;BME280;44177;43.356;27.672;2022-10-31T04:42:24;98462.59;;;17.90;49.04
58373;BME280;44177;43.356;27.672;2022-10-31T04:44:49;98466.94;;;17.91;48.88
58373;BME280;44177;43.356;27.672;2022-10-31T04:47:14;98470.47;;;17.91;48.65
58373;BME280;44177;43.356;27.672;2022-10-31T04:49:40;98478.75;;;17.91;48.99
58373;BME280;44177;43.356;27.672;2022-10-31T04:52:05;98473.22;;;17.91;48.88
58373;BME280;44177;43.356;27.672;2022-10-31T04:54:32;98477.56;;;17.92;48.69
58373;BME280;44177;43.356;27.672;2022-10-31T04:56:57;98481.50;;;17.91;48.78
58373;BME280;44177;43.356;27.672;2022-10-31T04:59:23;98484.28;;;17.91;48.79
58373;BME280;44177;43.356;27.672;2022-10-31T05:01:48;98483.84;;;17.89;48.87
58373;BME280;44177;43.356;27.672;2022-10-31T05:04:14;98487.03;;;17.91;48.78
58373;BME280;44177;43.356;27.672;2022-10-31T05:06:39;98490.97;;;17.90;48.99
58373;BME280;44177;43.356;27.672;2022-10-31T05:09:04;98496.91;;;17.92;48.84
58373;BME280;44177;43.356;27.672;2022-10-31T05:11:30;98494.53;;;17.91;48.81
58373;BME280;44177;43.356;27.672;2022-10-31T05:13:55;98500.81;;;17.91;48.81
58373;BME280;44177;43.356;27.672;2022-10-31T05:16:21;98496.47;;;17.90;48.88
58373;BME280;44177;43.356;27.672;2022-10-31T05:18:46;98508.34;;;17.91;48.96
58373;BME280;44177;43.356;27.672;2022-10-31T05:21:12;98509.88;;;17.92;48.74
58373;BME280;44177;43.356;27.672;2022-10-31T05:23:37;98510.28;;;17.90;48.85
58373;BME280;44177;43.356;27.672;2022-10-31T05:26:03;98518.97;;;17.92;48.80
58373;BME280;44177;43.356;27.672;2022-10-31T05:28:28;98515.41;;;17.92;48.88
58373;BME280;44177;43.356;27.672;2022-10-31T05:30:53;98514.63;;;17.91;48.97
58373;BME280;44177;43.356;27.672;2022-10-31T05:33:19;98522.91;;;17.91;48.76
58373;BME280;44177;43.356;27.672;2022-10-31T05:35:44;98535.53;;;17.92;48.75
58373;BME280;44177;43.356;27.672;2022-10-31T05:38:10;98529.59;;;17.90;48.81
58373;BME280;44177;43.356;27.672;2022-10-31T05:40:35;98537.88;;;17.90;48.93
58373;BME280;44177;43.356;27.672;2022-10-31T05:43:01;98541.06;;;17.92;48.77
58373;BME280;44177;43.356;27.672;2022-10-31T05:45:26;98541.44;;;17.91;48.78
58373;BME280;44177;43.356;27.672;2022-10-31T05:47:57;98544.22;;;17.91;48.54
58373;BME280;44177;43.356;27.672;2022-10-31T05:50:23;98548.91;;;17.90;48.88
58373;BME280;44177;43.356;27.672;2022-10-31T05:53:00;98533.16;;;17.91;48.59
58373;BME280;44177;43.356;27.672;2022-10-31T05:55:26;98536.28;;;17.89;48.65
58373;BME280;44177;43.356;27.672;2022-10-31T05:57:53;98538.28;;;17.92;48.75
58373;BME280;44177;43.356;27.672;2022-10-31T06:00:18;98535.53;;;17.92;48.72
58373;BME280;44177;43.356;27.672;2022-10-31T06:02:44;98544.22;;;17.91;48.96
58373;BME280;44177;43.356;27.672;2022-10-31T06:05:10;98529.97;;;17.85;48.81
58373;BME280;44177;43.356;27.672;2022-10-31T06:07:35;98547.75;;;17.91;48.80
58373;BME280;44177;43.356;27.672;2022-10-31T06:10:06;98545.75;;;17.92;48.57
58373;BME280;44177;43.356;27.672;2022-10-31T06:12:32;98552.09;;;17.92;48.65
58373;BME280;44177;43.356;27.672;2022-10-31T06:15:04;98552.09;;;17.92;48.64
58373;BME280;44177;43.356;27.672;2022-10-31T06:17:30;98546.53;;;17.85;48.87
58373;BME280;44177;43.356;27.672;2022-10-31T06:19:55;98555.25;;;17.94;48.76
58373;BME280;44177;43.356;27.672;2022-10-31T06:22:21;98563.53;;;17.94;48.85
58373;BME280;44177;43.356;27.672;2022-10-31T06:24:46;98565.16;;;17.95;48.80
58373;BME280;44177;43.356;27.672;2022-10-31T06:27:11;98561.19;;;17.96;48.56
58373;BME280;44177;43.356;27.672;2022-10-31T06:29:37;98566.72;;;17.96;48.70
58373;BME280;44177;43.356;27.672;2022-10-31T06:32:02;98571.06;;;17.97;48.95
58373;BME280;44177;43.356;27.672;2022-10-31T06:34:28;98571.88;;;17.98;48.48
58373;BME280;44177;43.356;27.672;2022-10-31T06:36:53;98573.44;;;17.99;48.61
58373;BME280;44177;43.356;27.672;2022-10-31T06:39:19;98578.56;;;18.01;48.72
58373;BME280;44177;43.356;27.672;2022-10-31T06:41:47;98581.34;;;18.01;48.47
58373;BME280;44177;43.356;27.672;2022-10-31T06:44:12;98580.16;;;18.02;48.74
58373;BME280;44177;43.356;27.672;2022-10-31T06:46:38;98589.63;;;18.01;48.61
58373;BME280;44177;43.356;27.672;2022-10-31T06:49:03;98581.34;;;18.01;48.85
58373;BME280;44177;43.356;27.672;2022-10-31T06:51:29;98591.56;;;18.00;48.61
58373;BME280;44177;43.356;27.672;2022-10-31T06:53:54;98590.41;;;18.01;48.58
58373;BME280;44177;43.356;27.672;2022-10-31T06:56:19;98588.44;;;18.02;48.77
58373;BME280;44177;43.356;27.672;2022-10-31T06:58:45;98592.38;;;18.01;48.45
58373;BME280;44177;43.356;27.672;2022-10-31T07:01:10;98597.91;;;18.01;48.61
58373;BME280;44177;43.356;27.672;2022-10-31T07:03:36;98587.63;;;18.01;48.85
58373;BME280;44177;43.356;27.672;2022-10-31T07:06:01;98582.13;;;18.01;48.61
58373;BME280;44177;43.356;27.672;2022-10-31T07:08:27;98585.69;;;18.02;48.51
58373;BME280;44177;43.356;27.672;2022-10-31T07:10:56;98587.63;;;18.01;48.46
58373;BME280;44177;43.356;27.672;2022-10-31T07:13:22;98582.91;;;18.02;48.69
58373;BME280;44177;43.356;27.672;2022-10-31T07:15:52;98585.28;;;18.03;48.66
58373;BME280;44177;43.356;27.672;2022-10-31T07:18:18;98571.09;;;18.05;48.55
58373;BME280;44177;43.356;27.672;2022-10-31T07:20:44;98579.38;;;18.08;48.66
58373;BME280;44177;43.356;27.672;2022-10-31T07:23:10;98588.06;;;18.10;48.58
58373;BME280;44177;43.356;27.672;2022-10-31T07:25:36;98586.91;;;18.11;48.39
58373;BME280;44177;43.356;27.672;2022-10-31T07:28:02;98595.19;;;18.15;48.16
58373;BME280;44177;43.356;27.672;2022-10-31T07:30:27;98586.91;;;18.15;48.41
58373;BME280;44177;43.356;27.672;2022-10-31T07:32:53;98598.75;;;18.19;48.20
58373;BME280;44177;43.356;27.672;2022-10-31T07:35:24;98594.81;;;18.20;48.26
58373;BME280;44177;43.356;27.672;2022-10-31T07:37:50;98598.00;;;18.22;47.99
58373;BME280;44177;43.356;27.672;2022-10-31T07:40:17;98588.94;;;18.25;48.31
58373;BME280;44177;43.356;27.672;2022-10-31T07:42:45;98583.44;;;18.29;48.20
58373;BME280;44177;43.356;27.672;2022-10-31T07:45:13;98586.19;;;18.33;48.06
58373;BME280;44177;43.356;27.672;2022-10-31T07:47:42;98588.56;;;18.34;48.09
58373;BME280;44177;43.356;27.672;2022-10-31T07:50:10;98594.09;;;18.38;47.83
58373;BME280;44177;43.356;27.672;2022-10-31T07:52:36;98590.94;;;18.39;47.89
58373;BME280;44177;43.356;27.672;2022-10-31T07:55:02;98587.81;;;18.41;47.93
58373;BME280;44177;43.356;27.672;2022-10-31T07:57:28;98594.91;;;18.42;47.64
58373;BME280;44177;43.356;27.672;2022-10-31T07:59:53;98592.53;;;18.44;47.75
58373;BME280;44177;43.356;27.672;2022-10-31T08:02:19;98594.53;;;18.47;47.82
58373;BME280;44177;43.356;27.672;2022-10-31T08:04:44;98593.34;;;18.48;47.48
58373;BME280;44177;43.356;27.672;2022-10-31T08:07:10;98595.72;;;18.50;47.63
58373;BME280;44177;43.356;27.672;2022-10-31T08:09:35;98598.88;;;18.52;47.63
58373;BME280;44177;43.356;27.672;2022-10-31T08:12:00;98592.97;;;18.53;47.59
58373;BME280;44177;43.356;27.672;2022-10-31T08:14:27;98596.13;;;18.55;47.58
58373;BME280;44177;43.356;27.672;2022-10-31T08:16:53;98599.31;;;18.57;47.41
58373;BME280;44177;43.356;27.672;2022-10-31T08:19:18;98587.84;;;18.59;47.63
58373;BME280;44177;43.356;27.672;2022-10-31T08:21:44;98587.09;;;18.62;47.46
58373;BME280;44177;43.356;27.672;2022-10-31T08:24:09;98594.97;;;18.63;47.45
58373;BME280;44177;43.356;27.672;2022-10-31T08:26:35;98598.13;;;18.66;47.31
58373;BME280;44177;43.356;27.672;2022-10-31T08:29:00;98603.28;;;18.71;47.59
58373;BME280;44177;43.356;27.672;2022-10-31T08:31:27;98604.47;;;18.77;47.10
58373;BME280;44177;43.356;27.672;2022-10-31T08:33:52;98603.75;;;18.94;46.90
58373;BME280;44177;43.356;27.672;2022-10-31T08:36:19;98602.97;;;19.27;46.01
58373;BME280;44177;43.356;27.672;2022-10-31T08:38:46;98602.16;;;19.59;45.57
58373;BME280;44177;43.356;27.672;2022-10-31T08:41:11;98595.00;;;19.86;44.72
58373;BME280;44177;43.356;27.672;2022-10-31T08:43:37;98601.25;;;20.12;44.19
58373;BME280;44177;43.356;27.672;2022-10-31T08:46:02;98592.88;;;20.30;43.42
58373;BME280;44177;43.356;27.672;2022-10-31T08:48:28;98607.38;;;20.60;43.27
58373;BME280;44177;43.356;27.672;2022-10-31T08:50:56;98615.22;;;20.79;42.70
58373;BME280;44177;43.356;27.672;2022-10-31T08:53:23;98613.56;;;20.93;42.27
58373;BME280;44177;43.356;27.672;2022-10-31T08:55:48;98608.31;;;21.06;42.09
58373;BME280;44177;43.356;27.672;2022-10-31T08:58:16;98607.81;;;21.18;41.73
58373;BME280;44177;43.356;27.672;2022-10-31T09:00:42;98606.56;;;21.26;41.53
58373;BME280;44177;43.356;27.672;2022-10-31T09:03:17;98612.84;;;21.34;41.25
58373;BME280;44177;43.356;27.672;2022-10-31T09:05:43;98603.66;;;21.41;41.13
58373;BME280;44177;43.356;27.672;2022-10-31T09:08:09;98599.28;;;21.43;41.06
58373;BME280;44177;43.356;27.672;2022-10-31T09:10:36;98603.97;;;21.50;40.89
58373;BME280;44177;43.356;27.672;2022-10-31T09:13:05;98601.56;;;21.56;41.06
58373;BME280;44177;43.356;27.672;2022-10-31T09:15:39;98587.69;;;21.56;40.86
58373;BME280;44177;43.356;27.672;2022-10-31T09:18:06;98597.66;;;21.50;40.94
58373;BME280;44177;43.356;27.672;2022-10-31T09:20:33;98597.78;;;21.32;41.29
58373;BME280;44177;43.356;27.672;2022-10-31T09:23:01;98589.22;;;21.11;41.75
58373;BME280;44177;43.356;27.672;2022-10-31T09:25:27;98594.56;;;20.91;42.31
58373;BME280;44177;43.356;27.672;2022-10-31T09:27:57;98589.50;;;20.75;42.52
58373;BME280;44177;43.356;27.672;2022-10-31T09:30:23;98598.66;;;20.61;42.87
58373;BME280;44177;43.356;27.672;2022-10-31T09:32:58;98599.91;;;20.49;43.20
58373;BME280;44177;43.356;27.672;2022-10-31T09:35:24;98597.16;;;20.46;43.33
58373;BME280;44177;43.356;27.672;2022-10-31T09:38:08;98587.63;;;20.50;43.35
58373;BME280;44177;43.356;27.672;2022-10-31T09:41:35;98588.38;;;20.62;42.94
58373;BME280;44177;43.356;27.672;2022-10-31T09:49:28;98592.22;;;20.82;42.47
58373;BME280;44177;43.356;27.672;2022-10-31T09:52:03;98586.28;;;20.80;42.52
58373;BME280;44177;43.356;27.672;2022-10-31T09:54:53;98581.94;;;20.83;42.55
58373;BME280;44177;43.356;27.672;2022-10-31T09:57:28;98579.47;;;20.92;42.25
58373;BME280;44177;43.356;27.672;2022-10-31T09:59:55;98578.75;;;20.85;42.50
58373;BME280;44177;43.356;27.672;2022-10-31T10:02:26;98575.63;;;20.75;42.72
58373;BME280;44177;43.356;27.672;2022-10-31T10:05:17;98571.19;;;20.89;42.39
58373;BME280;44177;43.356;27.672;2022-10-31T10:13:25;98579.91;;;20.87;42.28
58373;BME280;44177;43.356;27.672;2022-10-31T10:16:00;98585.97;;;20.67;42.71
58373;BME280;44177;43.356;27.672;2022-10-31T10:26:13;98579.66;;;20.60;42.96
58373;BME280;44177;43.356;27.672;2022-10-31T10:28:43;98570.59;;;20.48;43.39
58373;BME280;44177;43.356;27.672;2022-10-31T10:31:17;98566.34;;;20.33;43.64
58373;BME280;44177;43.356;27.672;2022-10-31T10:36:44;98566.41;;;20.18;43.88
58373;BME280;44177;43.356;27.672;2022-10-31T10:39:20;98565.66;;;20.11;44.04
58373;BME280;44177;43.356;27.672;2022-10-31T10:41:49;98575.19;;;20.06;44.16
58373;BME280;44177;43.356;27.672;2022-10-31T10:44:37;98566.09;;;19.98;44.41
58373;BME280;44177;43.356;27.672;2022-10-31T10:47:22;98570.88;;;19.91;44.58
58373;BME280;44177;43.356;27.672;2022-10-31T10:50:31;98564.56;;;19.86;44.74
58373;BME280;44177;43.356;27.672;2022-10-31T10:55:41;98560.19;;;19.78;44.84
58373;BME280;44177;43.356;27.672;2022-10-31T10:58:09;98566.13;;;19.77;45.30
58373;BME280;44177;43.356;27.672;2022-10-31T11:03:05;98555.88;;;19.70;45.23
58373;BME280;44177;43.356;27.672;2022-10-31T11:05:43;98552.72;;;19.68;45.15
58373;BME280;44177;43.356;27.672;2022-10-31T11:08:10;98560.22;;;19.64;45.33
58373;BME280;44177;43.356;27.672;2022-10-31T11:10:37;98550.78;;;19.57;45.40
58373;BME280;44177;43.356;27.672;2022-10-31T11:15:35;98550.00;;;19.57;45.54
58373;BME280;44177;43.356;27.672;2022-10-31T11:18:01;98548.41;;;19.56;45.61
58373;BME280;44177;43.356;27.672;2022-10-31T11:20:32;98551.56;;;19.54;45.66
58373;BME280;44177;43.356;27.672;2022-10-31T11:23:25;98548.41;;;19.56;45.78
58373;BME280;44177;43.356;27.672;2022-10-31T11:28:17;98549.19;;;19.53;45.86
58373;BME280;44177;43.356;27.672;2022-10-31T11:31:07;98543.66;;;19.53;45.89
58373;BME280;44177;43.356;27.672;2022-10-31T11:33:39;98537.34;;;19.52;45.73
58373;BME280;44177;43.356;27.672;2022-10-31T11:36:37;98542.47;;;19.50;45.78
58373;BME280;44177;43.356;27.672;2022-10-31T11:39:05;98546.84;;;19.48;45.84
58373;BME280;44177;43.356;27.672;2022-10-31T11:41:38;98541.31;;;19.48;45.71
58373;BME280;44177;43.356;27.672;2022-10-31T11:44:15;98539.72;;;19.47;46.06
58373;BME280;44177;43.356;27.672;2022-10-31T11:46:44;98532.59;;;19.46;45.90
58373;BME280;44177;43.356;27.672;2022-10-31T11:51:54;98525.50;;;19.41;45.85
58373;BME280;44177;43.356;27.672;2022-10-31T11:54:27;98519.19;;;19.44;45.79
58373;BME280;44177;43.356;27.672;2022-10-31T11:56:53;98531.84;;;19.45;45.88
58373;BME280;44177;43.356;27.672;2022-10-31T11:59:30;98531.84;;;19.45;45.85
58373;BME280;44177;43.356;27.672;2022-10-31T12:01:58;98537.38;;;19.45;46.15
58373;BME280;44177;43.356;27.672;2022-10-31T12:07:00;98537.34;;;19.41;45.99
58373;BME280;44177;43.356;27.672;2022-10-31T12:09:30;98539.34;;;19.41;46.06
58373;BME280;44177;43.356;27.672;2022-10-31T12:12:41;98536.16;;;19.39;46.26
58373;BME280;44177;43.356;27.672;2022-10-31T12:28:59;98535.41;;;19.31;46.18
58373;BME280;44177;43.356;27.672;2022-10-31T12:35:08;98537.00;;;19.29;46.35
58373;BME280;44177;43.356;27.672;2022-10-31T12:51:58;98544.91;;;19.23;46.73
58373;BME280;44177;43.356;27.672;2022-10-31T12:55:02;98545.31;;;19.21;46.64
58373;BME280;44177;43.356;27.672;2022-10-31T12:58:02;98542.13;;;19.19;46.86
58373;BME280;44177;43.356;27.672;2022-10-31T13:00:37;98543.31;;;19.18;46.65
58373;BME280;44177;43.356;27.672;2022-10-31T13:06:09;98542.91;;;19.16;46.66
58373;BME280;44177;43.356;27.672;2022-10-31T13:09:00;98540.56;;;19.15;46.79
58373;BME280;44177;43.356;27.672;2022-10-31T13:11:27;98544.09;;;19.15;46.86
58373;BME280;44177;43.356;27.672;2022-10-31T13:14:11;98545.28;;;19.14;46.69
58373;BME280;44177;43.356;27.672;2022-10-31T13:16:40;98552.38;;;19.15;47.00
58373;BME280;44177;43.356;27.672;2022-10-31T13:22:04;98555.16;;;19.15;46.63
58373;BME280;44177;43.356;27.672;2022-10-31T13:27:23;98545.28;;;19.10;46.88
58373;BME280;44177;43.356;27.672;2022-10-31T13:30:01;98545.28;;;19.14;46.83
58373;BME280;44177;43.356;27.672;2022-10-31T13:32:36;98550.81;;;19.14;46.94
58373;BME280;44177;43.356;27.672;2022-10-31T13:35:04;98547.66;;;19.12;46.94
58373;BME280;44177;43.356;27.672;2022-10-31T13:37:41;98547.66;;;19.12;46.77
58373;BME280;44177;43.356;27.672;2022-10-31T13:44:04;98553.56;;;19.10;47.01
58373;BME280;44177;43.356;27.672;2022-10-31T13:46:24;98555.97;;;19.08;46.86
58373;BME280;44177;43.356;27.672;2022-10-31T13:48:50;98557.16;;;19.04;46.98
58373;BME280;44177;43.356;27.672;2022-10-31T13:51:25;98556.75;;;19.02;47.00
58373;BME280;44177;43.356;27.672;2022-10-31T13:56:20;98556.34;;;19.03;47.21
58373;BME280;44177;43.356;27.672;2022-10-31T13:59:00;98562.69;;;19.04;47.23
58373;BME280;44177;43.356;27.672;2022-10-31T14:01:27;98552.41;;;19.01;47.17
58373;BME280;44177;43.356;27.672;2022-10-31T14:04:06;98556.75;;;19.02;47.29
58373;BME280;44177;43.356;27.672;2022-10-31T14:11:48;98557.53;;;18.99;47.22
58373;BME280;44177;43.356;27.672;2022-10-31T14:14:15;98562.28;;;18.98;47.24
58373;BME280;44177;43.356;27.672;2022-10-31T14:16:44;98559.50;;;18.98;47.15
58373;BME280;44177;43.356;27.672;2022-10-31T14:19:17;98568.97;;;18.97;47.31
58373;BME280;44177;43.356;27.672;2022-10-31T14:21:45;98563.06;;;18.95;47.40
58373;BME280;44177;43.356;27.672;2022-10-31T14:26:52;98571.34;;;18.95;47.52
58373;BME280;44177;43.356;27.672;2022-10-31T14:31:55;98568.53;;;18.91;47.35
58373;BME280;44177;43.356;27.672;2022-10-31T14:34:34;98577.69;;;18.92;47.28
58373;BME280;44177;43.356;27.672;2022-10-31T14:40:35;98576.84;;;18.88;47.39
58373;BME280;44177;43.356;27.672;2022-10-31T14:51:16;98586.72;;;18.85;47.34
58373;BME280;44177;43.356;27.672;2022-10-31T14:53:47;98589.47;;;18.85;47.45
58373;BME280;44177;43.356;27.672;2022-10-31T14:56:41;98589.88;;;18.84;47.61
58373;BME280;44177;43.356;27.672;2022-10-31T14:59:09;98599.34;;;18.83;47.56
58373;BME280;44177;43.356;27.672;2022-10-31T15:01:38;98595.81;;;18.82;47.42
58373;BME280;44177;43.356;27.672;2022-10-31T15:04:16;98591.06;;;18.79;47.69
58373;BME280;44177;43.356;27.672;2022-10-31T15:06:46;98598.94;;;18.81;47.64
58373;BME280;44177;43.356;27.672;2022-10-31T15:09:34;98606.44;;;18.80;47.66
58373;BME280;44177;43.356;27.672;2022-10-31T15:12:05;98604.88;;;18.79;47.62
58373;BME280;44177;43.356;27.672;2022-10-31T15:14:40;98601.69;;;18.77;47.73